createdAt,value
2022-11-09T00:01:37.345Z,29.43
2022-11-09T00:04:07.332Z,30.63
2022-11-09T00:06:36.798Z,32.70
2022-11-09T00:09:08.465Z,33.20
2022-11-09T00:11:37.656Z,35.67
2022-11-09T00:14:05.930Z,38.20
2022-11-09T00:16:35.329Z,34.67
2022-11-09T00:19:03.407Z,34.90
2022-11-09T00:21:31.477Z,35.63
2022-11-09T00:23:59.905Z,33.93
2022-11-09T00:26:30.091Z,30.67
2022-11-09T00:28:58.054Z,31.10
2022-11-09T00:31:26.834Z,30.87
2022-11-09T00:33:58.018Z,30.77
2022-11-09T00:36:29.414Z,32.50
2022-11-09T00:39:00.041Z,28.93
2022-11-09T00:41:28.795Z,31.63
2022-11-09T00:43:56.957Z,30.17
2022-11-09T00:46:25.423Z,29.73
2022-11-09T00:48:57.731Z,30.13
2022-11-09T00:51:26.305Z,29.50
2022-11-09T00:53:55.856Z,28.87
2022-11-09T00:56:24.508Z,27.77
2022-11-09T00:58:54.782Z,29.57
2022-11-09T01:01:24.040Z,30.00
2022-11-09T01:03:52.226Z,31.03
2022-11-09T01:06:25.005Z,29.23
2022-11-09T01:08:54.871Z,29.53
2022-11-09T01:11:24.021Z,26.47
2022-11-09T01:13:52.523Z,27.03
2022-11-09T01:16:23.572Z,26.17
2022-11-09T01:18:55.003Z,25.63
2022-11-09T01:21:24.842Z,27.53
2022-11-09T01:23:54.651Z,32.77
2022-11-09T01:26:23.740Z,29.77
2022-11-09T01:28:52.147Z,28.80
2022-11-09T01:31:21.565Z,27.30
2022-11-09T01:33:50.125Z,29.20
2022-11-09T01:36:20.727Z,28.90
2022-11-09T01:38:51.309Z,28.93
2022-11-09T01:41:22.445Z,27.50
2022-11-09T01:44:11.751Z,30.20
2022-11-09T01:46:44.905Z,29.97
2022-11-09T01:49:18.639Z,30.47
2022-11-09T01:51:50.529Z,30.63
2022-11-09T01:54:23.790Z,29.23
2022-11-09T01:56:55.706Z,29.73
2022-11-09T01:59:27.779Z,29.03
2022-11-09T02:01:56.444Z,31.73
2022-11-09T02:04:28.094Z,31.40
2022-11-09T02:06:59.134Z,30.97
2022-11-09T02:09:37.035Z,29.40
2022-11-09T02:12:05.739Z,32.07
2022-11-09T02:14:35.908Z,30.27
2022-11-09T02:17:04.057Z,32.37
2022-11-09T02:19:32.218Z,32.13
2022-11-09T02:22:01.811Z,32.10
2022-11-09T02:24:31.128Z,30.30
2022-11-09T02:26:59.847Z,29.27
2022-11-09T02:29:32.990Z,30.47
2022-11-09T02:32:05.099Z,28.37
2022-11-09T02:34:33.110Z,29.47
2022-11-09T02:37:02.846Z,28.43
2022-11-09T02:39:31.130Z,26.77
2022-11-09T02:42:05.111Z,27.50
2022-11-09T02:44:39.887Z,28.50
2022-11-09T02:47:08.287Z,27.50
2022-11-09T02:49:36.413Z,26.37
2022-11-09T02:52:06.200Z,26.57
2022-11-09T02:54:35.211Z,25.37
2022-11-09T02:57:03.648Z,23.00
2022-11-09T02:59:31.959Z,22.80
2022-11-09T03:02:00.335Z,24.27
2022-11-09T03:04:28.541Z,21.70
2022-11-09T03:06:57.105Z,23.73
2022-11-09T03:09:27.245Z,22.17
2022-11-09T03:11:55.467Z,25.60
2022-11-09T03:14:23.909Z,23.93
2022-11-09T03:16:51.864Z,22.77
2022-11-09T03:19:20.112Z,23.33
2022-11-09T03:21:48.175Z,23.40
2022-11-09T03:24:16.204Z,23.20
2022-11-09T03:26:45.707Z,24.80
2022-11-09T03:29:13.923Z,23.87
2022-11-09T03:31:43.692Z,24.43
2022-11-09T03:34:11.643Z,26.23
2022-11-09T03:36:40.098Z,25.97
2022-11-09T03:39:11.019Z,24.83
2022-11-09T03:41:39.514Z,26.33
2022-11-09T03:44:09.060Z,25.87
2022-11-09T03:46:37.073Z,26.07
2022-11-09T03:49:06.206Z,25.00
2022-11-09T03:51:34.432Z,25.90
2022-11-09T03:54:02.643Z,26.37
2022-11-09T03:56:32.887Z,26.47
2022-11-09T03:59:00.846Z,28.47
2022-11-09T04:01:30.315Z,28.50
2022-11-09T04:03:58.680Z,29.93
2022-11-09T04:06:27.008Z,31.60
2022-11-09T04:08:57.751Z,30.83
2022-11-09T04:11:26.261Z,33.00
2022-11-09T04:13:54.361Z,32.50
2022-11-09T04:16:22.422Z,32.37
2022-11-09T04:18:51.862Z,31.73
2022-11-09T04:21:23.688Z,30.40
2022-11-09T04:23:52.580Z,31.87
2022-11-09T04:26:20.805Z,31.00
2022-11-09T04:28:48.823Z,30.70
2022-11-09T04:31:17.117Z,31.37
2022-11-09T04:33:46.065Z,31.40
2022-11-09T04:36:15.463Z,28.97
2022-11-09T04:38:43.336Z,29.10
2022-11-09T04:41:12.404Z,27.67
2022-11-09T04:43:40.605Z,27.27
2022-11-09T04:46:08.601Z,28.57
2022-11-09T04:48:36.662Z,28.47
2022-11-09T04:51:06.465Z,28.33
2022-11-09T04:53:36.399Z,28.63
2022-11-09T04:56:04.807Z,28.93
2022-11-09T04:58:33.672Z,28.13
2022-11-09T05:01:04.003Z,26.60
2022-11-09T05:03:31.980Z,26.93
2022-11-09T05:06:00.430Z,27.03
2022-11-09T05:08:28.597Z,28.63
2022-11-09T05:10:59.232Z,28.77
2022-11-09T05:13:27.476Z,28.90
2022-11-09T05:15:55.565Z,29.23
2022-11-09T05:18:23.569Z,28.07
2022-11-09T05:20:51.715Z,27.30
2022-11-09T05:23:37.341Z,27.73
2022-11-09T05:26:07.679Z,26.23
2022-11-09T05:28:35.825Z,26.67
2022-11-09T05:31:04.173Z,30.43
2022-11-09T05:33:32.293Z,30.13
2022-11-09T05:36:00.271Z,27.97
2022-11-09T05:38:28.441Z,29.80
2022-11-09T05:40:56.687Z,28.87
2022-11-09T05:43:26.390Z,28.27
2022-11-09T05:45:54.540Z,29.10
2022-11-09T05:48:22.539Z,28.70
2022-11-09T05:50:50.513Z,28.23
2022-11-09T05:53:18.976Z,27.93
2022-11-09T05:55:47.202Z,28.93
2022-11-09T05:58:15.570Z,28.60
2022-11-09T06:00:45.007Z,28.37
2022-11-09T06:03:13.150Z,29.40
2022-11-09T06:05:42.671Z,28.80
2022-11-09T06:08:13.043Z,26.70
2022-11-09T06:10:43.420Z,30.10
2022-11-09T06:13:12.065Z,28.93
2022-11-09T06:15:40.114Z,29.57
2022-11-09T06:18:11.183Z,29.07
2022-11-09T06:20:39.347Z,26.57
2022-11-09T06:23:07.588Z,27.07
2022-11-09T06:25:35.757Z,25.67
2022-11-09T06:28:03.681Z,24.17
2022-11-09T06:30:32.325Z,26.93
2022-11-09T06:33:01.899Z,26.40
2022-11-09T06:35:35.115Z,27.53
2022-11-09T06:38:03.609Z,24.40
2022-11-09T06:40:33.758Z,23.40
2022-11-09T06:43:02.417Z,24.00
2022-11-09T06:45:32.807Z,22.50
2022-11-09T06:48:02.285Z,23.23
2022-11-09T06:50:33.689Z,23.43
2022-11-09T06:53:03.191Z,22.87
2022-11-09T06:55:33.128Z,24.93
2022-11-09T06:58:01.762Z,25.07
2022-11-09T07:00:30.763Z,25.47
2022-11-09T07:02:58.824Z,24.17
2022-11-09T07:05:27.837Z,25.50
2022-11-09T07:07:58.057Z,27.23
2022-11-09T07:10:26.209Z,28.10
2022-11-09T07:12:55.191Z,26.37
2022-11-09T07:15:24.626Z,26.90
2022-11-09T07:17:52.790Z,28.47
2022-11-09T07:20:20.863Z,29.33
2022-11-09T07:22:51.197Z,28.43
2022-11-09T07:25:21.163Z,29.47
2022-11-09T07:27:49.349Z,29.80
2022-11-09T07:30:19.928Z,27.23
2022-11-09T07:35:37.230Z,28.60
2022-11-09T07:38:06.649Z,26.63
2022-11-09T07:40:36.797Z,26.37
2022-11-09T07:43:06.559Z,26.87
2022-11-09T07:45:36.494Z,27.33
2022-11-09T07:48:06.977Z,27.53
2022-11-09T07:50:36.671Z,27.70
2022-11-09T07:53:05.589Z,28.17
2022-11-09T07:55:33.644Z,26.93
2022-11-09T07:58:05.040Z,27.30
2022-11-09T08:00:35.312Z,29.53
2022-11-09T08:03:04.583Z,30.43
2022-11-09T08:05:33.042Z,28.90
2022-11-09T08:08:02.840Z,32.83
2022-11-09T08:10:33.075Z,35.77
2022-11-09T08:13:06.883Z,29.67
2022-11-09T08:15:36.485Z,30.53
2022-11-09T08:18:06.864Z,30.30
2022-11-09T08:20:35.745Z,31.20
2022-11-09T08:23:04.980Z,31.17
2022-11-09T08:25:35.064Z,32.47
2022-11-09T08:28:05.200Z,31.30
2022-11-09T08:30:33.933Z,27.93
2022-11-09T08:33:04.113Z,30.90
2022-11-09T08:35:32.816Z,30.73
2022-11-09T08:38:03.936Z,27.67
2022-11-09T08:40:33.017Z,29.60
2022-11-09T08:43:05.238Z,28.17
2022-11-09T08:45:35.466Z,27.33
2022-11-09T08:48:04.485Z,29.13
2022-11-09T08:50:34.088Z,28.77
2022-11-09T08:53:02.825Z,31.30
2022-11-09T08:55:31.411Z,28.03
2022-11-09T08:58:01.983Z,28.13
2022-11-09T09:00:32.029Z,30.73
2022-11-09T09:03:00.127Z,31.47
2022-11-09T09:05:28.515Z,28.37
2022-11-09T09:07:57.711Z,27.57
2022-11-09T09:10:26.311Z,25.53
2022-11-09T09:12:54.625Z,28.53
2022-11-09T09:15:23.422Z,26.23
2022-11-09T09:17:54.139Z,24.87
2022-11-09T09:20:22.317Z,24.17
2022-11-09T09:22:50.356Z,24.50
2022-11-09T09:25:18.366Z,26.53
2022-11-09T09:27:46.606Z,24.83
2022-11-09T09:30:15.407Z,26.70
2022-11-09T09:32:43.637Z,22.70
2022-11-09T09:35:14.521Z,23.20
2022-11-09T09:37:42.537Z,21.73
2022-11-09T09:40:24.235Z,22.40
2022-11-09T09:42:54.521Z,24.23
2022-11-09T09:45:26.023Z,22.60
2022-11-09T09:47:59.971Z,24.53
2022-11-09T09:50:32.824Z,20.23
2022-11-09T09:53:23.188Z,15.17
2022-11-09T09:55:57.183Z,21.17
2022-11-09T09:58:28.023Z,20.27
2022-11-09T10:01:00.586Z,21.23
2022-11-09T10:03:28.629Z,22.20
2022-11-09T10:06:06.164Z,19.23
2022-11-09T10:08:46.920Z,20.93
2022-11-09T10:11:26.539Z,20.17
2022-11-09T10:14:11.380Z,21.73
2022-11-09T10:16:50.814Z,23.20
2022-11-09T10:19:33.429Z,20.50
2022-11-09T10:22:09.607Z,22.67
2022-11-09T10:27:42.402Z,21.97
2022-11-09T10:30:15.472Z,21.67
2022-11-09T10:32:45.998Z,19.90
2022-11-09T10:35:21.704Z,20.47
2022-11-09T10:37:55.246Z,17.20
2022-11-09T10:40:28.983Z,16.93
2022-11-09T10:42:59.375Z,18.40
2022-11-09T10:45:32.386Z,17.27
2022-11-09T10:48:03.302Z,15.73
2022-11-09T10:50:35.268Z,16.47
2022-11-09T10:53:15.706Z,18.33
2022-11-09T10:55:55.168Z,19.40
2022-11-09T10:58:36.052Z,18.00
2022-11-09T11:01:07.125Z,16.17
2022-11-09T11:03:38.490Z,15.90
2022-11-09T11:06:07.922Z,16.77
2022-11-09T11:08:42.100Z,18.33
2022-11-09T11:11:36.151Z,16.87
2022-11-09T11:14:18.458Z,17.60
2022-11-09T11:16:53.100Z,15.67
2022-11-09T11:19:36.154Z,18.03
2022-11-09T11:22:25.456Z,18.07
2022-11-09T11:24:58.729Z,16.73
2022-11-09T11:27:34.242Z,15.37
2022-11-09T11:30:10.792Z,14.93
2022-11-09T11:32:45.476Z,15.27
2022-11-09T11:35:24.453Z,13.40
2022-11-09T11:38:04.644Z,15.53
2022-11-09T11:40:39.728Z,14.70
2022-11-09T11:43:24.674Z,16.00
2022-11-09T11:46:06.173Z,16.50
2022-11-09T11:48:50.889Z,16.93
2022-11-09T11:51:23.876Z,17.93
2022-11-09T11:54:06.380Z,16.77
2022-11-09T11:56:39.366Z,16.90
2022-11-09T11:59:27.370Z,15.50
2022-11-09T12:02:20.113Z,15.13
2022-11-09T12:05:20.762Z,16.87
2022-11-09T12:07:57.552Z,16.67
2022-11-09T12:10:41.266Z,17.37
2022-11-09T12:13:19.491Z,15.87
2022-11-09T12:15:56.411Z,16.30
2022-11-09T12:18:39.303Z,17.40
2022-11-09T12:21:17.078Z,18.00
2022-11-09T12:24:03.937Z,16.83
2022-11-09T12:26:55.726Z,17.30
2022-11-09T12:29:38.992Z,16.40
2022-11-09T12:32:17.428Z,16.87
2022-11-09T12:34:54.034Z,17.63
2022-11-09T12:37:26.843Z,17.43
2022-11-09T12:39:55.567Z,17.87
2022-11-09T12:42:28.342Z,17.43
2022-11-09T12:45:06.347Z,17.93
2022-11-09T12:47:41.181Z,17.67
2022-11-09T12:50:14.886Z,19.93
2022-11-09T12:52:44.826Z,19.07
2022-11-09T12:55:16.548Z,18.93
2022-11-09T12:57:47.320Z,18.63
2022-11-09T13:00:46.232Z,19.20
2022-11-09T13:03:23.473Z,16.63
2022-11-09T13:06:12.083Z,16.97
2022-11-09T13:08:41.679Z,17.73
2022-11-09T13:11:20.049Z,18.70
2022-11-09T13:13:48.331Z,16.27
2022-11-09T13:16:37.409Z,18.47
2022-11-09T13:19:10.152Z,20.23
2022-11-09T13:21:42.377Z,18.87
2022-11-09T13:24:49.498Z,20.23
2022-11-09T13:27:37.842Z,17.20
2022-11-09T13:30:41.717Z,18.40
2022-11-09T13:33:24.708Z,18.57
2022-11-09T13:36:22.036Z,18.30
2022-11-09T13:39:27.302Z,17.47
2022-11-09T13:41:55.820Z,18.40
2022-11-09T13:44:32.772Z,17.77
2022-11-09T13:47:04.408Z,18.60
2022-11-09T13:49:44.290Z,16.37
2022-11-09T13:52:55.756Z,17.57
2022-11-09T13:55:33.540Z,17.83
2022-11-09T13:58:06.773Z,17.50
2022-11-09T14:00:36.765Z,17.03
2022-11-09T14:03:17.199Z,18.07
2022-11-09T14:05:46.184Z,17.87
2022-11-09T14:08:25.858Z,18.50
2022-11-09T14:11:31.839Z,18.37
2022-11-09T14:14:14.169Z,18.20
2022-11-09T14:16:51.980Z,17.50
2022-11-09T14:19:31.389Z,18.20
2022-11-09T14:22:01.021Z,17.40
2022-11-09T14:24:32.825Z,18.13
2022-11-09T14:27:05.637Z,19.10
2022-11-09T14:29:36.165Z,18.97
2022-11-09T14:32:24.008Z,17.77
2022-11-09T14:34:52.123Z,17.93
2022-11-09T14:37:21.222Z,18.97
2022-11-09T14:39:50.517Z,16.20
2022-11-09T14:42:22.784Z,19.10
2022-11-09T14:44:51.757Z,20.53
2022-11-09T14:47:24.399Z,20.00
2022-11-09T14:49:53.005Z,20.93
2022-11-09T14:52:29.977Z,18.83
2022-11-09T14:54:59.616Z,21.60
2022-11-09T14:57:29.241Z,19.57
2022-11-09T14:59:57.882Z,20.03
2022-11-09T15:02:26.814Z,27.63
2022-11-09T15:04:59.162Z,22.57
2022-11-09T15:07:30.636Z,23.03
2022-11-09T15:10:01.088Z,22.23
2022-11-09T15:12:31.582Z,24.03
2022-11-09T15:15:03.354Z,24.03
2022-11-09T15:17:33.901Z,24.87
2022-11-09T15:20:04.169Z,25.20
2022-11-09T15:22:46.932Z,25.80
2022-11-09T15:25:28.045Z,26.87
2022-11-09T15:28:05.428Z,27.97
2022-11-09T15:30:36.617Z,27.90
2022-11-09T15:33:25.126Z,27.93
2022-11-09T15:35:57.243Z,28.07
2022-11-09T15:38:35.008Z,29.17
2022-11-09T15:41:04.195Z,27.70
2022-11-09T15:43:33.883Z,27.17
2022-11-09T15:46:02.299Z,27.93
2022-11-09T15:48:30.591Z,26.87
2022-11-09T15:50:58.970Z,28.10
2022-11-09T15:53:30.421Z,29.20
2022-11-09T15:55:58.431Z,29.33
2022-11-09T15:58:26.533Z,31.67
2022-11-09T16:00:56.700Z,29.93
2022-11-09T16:03:25.366Z,29.73
2022-11-09T16:05:53.434Z,26.87
2022-11-09T16:08:22.155Z,28.33
2022-11-09T16:10:50.691Z,27.33
2022-11-09T16:13:18.638Z,28.20
2022-11-09T16:15:49.737Z,26.33
2022-11-09T16:18:25.557Z,29.73
2022-11-09T16:20:54.864Z,28.80
2022-11-09T16:23:22.824Z,26.60
2022-11-09T16:25:50.784Z,27.97
2022-11-09T16:28:20.304Z,27.83
2022-11-09T16:30:48.541Z,27.37
2022-11-09T16:33:16.549Z,26.33
2022-11-09T16:35:46.215Z,25.67
2022-11-09T16:38:14.683Z,24.57
2022-11-09T16:40:43.996Z,23.63
2022-11-09T16:43:12.255Z,26.03
2022-11-09T16:45:47.502Z,23.53
2022-11-09T16:48:17.967Z,24.73
2022-11-09T16:50:48.797Z,23.87
2022-11-09T16:53:17.486Z,24.60
2022-11-09T16:55:46.691Z,24.50
2022-11-09T16:58:14.915Z,24.07
2022-11-09T17:01:19.237Z,24.27
2022-11-09T17:03:34.867Z,23.53
2022-11-09T17:06:05.202Z,23.50
2022-11-09T17:08:34.327Z,24.27
2022-11-09T17:11:02.342Z,26.97
2022-11-09T17:13:30.890Z,25.27
2022-11-09T17:15:58.837Z,26.13
2022-11-09T17:18:27.029Z,24.60
2022-11-09T17:20:55.113Z,29.17
2022-11-09T17:23:24.568Z,27.17
2022-11-09T17:25:56.960Z,16.13
2022-11-09T17:28:26.293Z,23.53
2022-11-09T17:30:54.579Z,25.67
2022-11-09T17:33:23.289Z,22.87
2022-11-09T17:36:01.922Z,23.97
2022-11-09T17:38:34.459Z,23.27
2022-11-09T17:41:04.738Z,24.70
2022-11-09T17:43:33.231Z,23.60
2022-11-09T17:46:04.923Z,24.43
2022-11-09T17:48:34.746Z,23.13
2022-11-09T17:51:03.081Z,22.93
2022-11-09T17:53:32.524Z,25.20
2022-11-09T17:56:01.739Z,24.50
2022-11-09T17:58:30.671Z,25.13
2022-11-09T18:01:06.288Z,23.67
2022-11-09T18:03:34.786Z,24.37
2022-11-09T18:06:02.806Z,24.47
2022-11-09T18:08:32.544Z,24.23
2022-11-09T18:11:01.034Z,26.27
2022-11-09T18:13:30.530Z,26.00
2022-11-09T18:15:59.910Z,24.10
2022-11-09T18:18:29.282Z,24.30
2022-11-09T18:20:58.235Z,26.40
2022-11-09T18:23:26.348Z,28.97
2022-11-09T18:26:00.580Z,27.97
2022-11-09T18:28:28.743Z,30.83
2022-11-09T18:31:02.493Z,36.17
2022-11-09T18:33:31.782Z,32.13
2022-11-09T18:36:01.223Z,31.37
2022-11-09T18:38:30.263Z,30.73
2022-11-09T18:41:14.310Z,26.43
2022-11-09T18:43:45.758Z,35.57
2022-11-09T18:46:16.424Z,33.43
2022-11-09T18:48:45.369Z,31.30
2022-11-09T18:51:13.687Z,33.27
2022-11-09T18:53:43.984Z,35.67
2022-11-09T18:56:18.643Z,36.53
2022-11-09T18:58:46.807Z,33.77
2022-11-09T19:01:15.563Z,36.20
2022-11-09T19:03:43.978Z,36.60
2022-11-09T19:06:15.437Z,34.63
2022-11-09T19:09:02.597Z,33.03
2022-11-09T19:11:33.071Z,31.47
2022-11-09T19:14:01.453Z,27.40
2022-11-09T19:16:30.990Z,29.67
2022-11-09T19:18:59.344Z,30.23
2022-11-09T19:21:37.402Z,31.10
2022-11-09T19:24:06.446Z,32.70
2022-11-09T19:26:38.641Z,29.20
2022-11-09T19:29:07.844Z,30.87
2022-11-09T19:31:36.505Z,30.23
2022-11-09T19:34:04.730Z,30.47
2022-11-09T19:36:33.754Z,27.73
2022-11-09T19:39:03.341Z,29.03
2022-11-09T19:41:31.288Z,28.77
2022-11-09T19:44:00.926Z,28.93
2022-11-09T19:46:31.270Z,29.10
2022-11-09T19:48:59.429Z,28.80
2022-11-09T19:51:29.420Z,29.60
2022-11-09T19:53:59.703Z,30.00
2022-11-09T19:56:29.712Z,27.97
2022-11-09T19:59:01.934Z,28.73
2022-11-09T20:01:31.767Z,26.73
2022-11-09T20:04:07.687Z,29.07
2022-11-09T20:06:39.329Z,29.00
2022-11-09T20:09:08.046Z,29.97
2022-11-09T20:11:53.999Z,28.23
2022-11-09T20:14:27.499Z,27.50
2022-11-09T20:16:55.584Z,30.30
2022-11-09T20:19:25.625Z,28.80
2022-11-09T20:21:54.031Z,30.37
2022-11-09T20:24:22.028Z,33.37
2022-11-09T20:26:50.477Z,29.47
2022-11-09T20:29:19.718Z,30.33
2022-11-09T20:31:50.553Z,29.73
2022-11-09T20:34:18.445Z,31.53
2022-11-09T20:36:46.996Z,27.87
2022-11-09T20:39:15.157Z,29.80
2022-11-09T20:41:43.241Z,29.67
2022-11-09T20:44:11.544Z,29.57
2022-11-09T20:46:39.895Z,28.40
2022-11-09T20:49:10.664Z,26.17
2022-11-09T20:51:38.955Z,24.70
2022-11-09T20:54:09.058Z,26.83
2022-11-09T20:56:37.983Z,27.53
2022-11-09T20:59:06.510Z,25.13
2022-11-09T21:01:35.225Z,28.47
2022-11-09T21:04:03.931Z,27.53
2022-11-09T21:06:34.427Z,27.33
2022-11-09T21:09:04.837Z,16.10
2022-11-09T21:11:57.507Z,21.97
2022-11-09T21:14:26.109Z,23.13
2022-11-09T21:16:54.788Z,26.67
2022-11-09T21:19:23.064Z,25.67
2022-11-09T21:21:53.516Z,23.27
2022-11-09T21:24:41.223Z,22.77
2022-11-09T21:27:28.629Z,29.00
2022-11-09T21:29:56.662Z,26.40
2022-11-09T21:32:25.777Z,29.90
2022-11-09T21:34:53.899Z,31.43
2022-11-09T21:37:23.541Z,29.50
2022-11-09T21:39:51.584Z,26.57
2022-11-09T21:42:20.376Z,28.07
2022-11-09T21:44:51.928Z,28.67
2022-11-09T21:47:19.942Z,29.63
2022-11-09T21:49:48.335Z,27.63
2022-11-09T21:52:16.382Z,27.27
2022-11-09T21:54:45.921Z,25.50
2022-11-09T21:57:14.052Z,27.43
2022-11-09T21:59:42.191Z,27.17
2022-11-09T22:02:12.791Z,28.10
2022-11-09T22:04:41.990Z,28.93
2022-11-09T22:07:10.411Z,28.50
2022-11-09T22:10:05.890Z,29.77
2022-11-09T22:12:49.682Z,29.63
2022-11-09T22:15:35.335Z,29.10
2022-11-09T22:18:03.255Z,29.43
2022-11-09T22:20:48.948Z,28.33
2022-11-09T22:23:17.157Z,30.47
2022-11-09T22:25:48.061Z,28.73
2022-11-09T22:28:17.565Z,31.50
2022-11-09T22:30:45.625Z,29.53
2022-11-09T22:33:14.564Z,30.67
2022-11-09T22:35:43.630Z,31.37
2022-11-09T22:38:11.790Z,32.53
2022-11-09T22:40:39.875Z,31.57
2022-11-09T22:43:08.132Z,34.77
2022-11-09T22:45:37.476Z,31.37
2022-11-09T22:48:05.906Z,28.97
2022-11-09T22:50:34.311Z,30.30
2022-11-09T22:53:04.057Z,30.90
2022-11-09T22:55:32.371Z,30.97
2022-11-09T22:58:00.855Z,31.47
2022-11-09T23:00:28.982Z,31.67
2022-11-09T23:02:59.584Z,32.17
2022-11-09T23:05:27.724Z,33.93
2022-11-09T23:07:56.516Z,32.47
2022-11-09T23:10:27.181Z,33.57
2022-11-09T23:12:55.740Z,32.37
2022-11-09T23:15:23.749Z,32.10
2022-11-09T23:18:11.453Z,32.83
2022-11-09T23:20:41.968Z,33.30
2022-11-09T23:23:11.226Z,33.47
2022-11-09T23:25:57.828Z,33.10
2022-11-09T23:28:26.064Z,34.27
2022-11-09T23:30:54.118Z,32.83
2022-11-09T23:33:22.923Z,31.03
2022-11-09T23:35:53.035Z,33.13
2022-11-09T23:38:21.115Z,31.40
2022-11-09T23:40:49.262Z,33.53
2022-11-09T23:43:17.526Z,32.93
2022-11-09T23:45:46.382Z,35.63
2022-11-09T23:48:19.137Z,32.80
2022-11-09T23:50:50.056Z,32.17
2022-11-09T23:53:20.187Z,32.87
2022-11-09T23:55:48.596Z,34.37
2022-11-09T23:58:18.448Z,32.30
